Time,TemperatureF,DewpointF,PressureIn,WindDirection,WindDirectionDegrees,WindSpeedMPH,WindSpeedGustMPH,Humidity,HourlyPrecipIn,Conditions,Clouds,dailyrainin,SoftwareType,DateUTC
2013-08-25 00:12:00,75.0,-99.9,-100.00,SE,145,1.0,4.0,-999,0.00,,,0.00,,2013-08-25 05:12:00,
2013-08-25 00:43:00,75.0,-99.9,-100.00,SSE,167,1.0,3.0,-999,0.00,,,0.00,,2013-08-25 05:43:00,
2013-08-25 00:52:00,75.0,-99.9,-100.00,SSE,167,1.0,3.0,-999,0.00,,,0.00,,2013-08-25 05:52:00,
2013-08-25 01:12:00,75.0,-99.9,-100.00,SSE,163,1.0,2.0,-999,0.00,,,0.00,,2013-08-25 06:12:00,
2013-08-25 01:22:00,75.0,-99.9,-100.00,SSE,163,1.0,2.0,-999,0.00,,,0.00,,2013-08-25 06:22:00,
2013-08-25 01:43:00,75.0,-99.9,-100.00,SSW,197,1.0,4.0,-999,0.00,,,0.00,,2013-08-25 06:43:00,
2013-08-25 01:52:00,75.0,-99.9,-100.00,SSW,197,1.0,4.0,-999,0.00,,,0.00,,2013-08-25 06:52:00,
2013-08-25 02:12:00,75.0,-99.9,-100.00,SSW,197,1.0,4.0,-999,0.00,,,0.00,,2013-08-25 07:12:00,
2013-08-25 02:22:00,75.0,-99.9,-100.00,SSW,197,1.0,4.0,-999,0.00,,,0.00,,2013-08-25 07:22:00,
2013-08-25 02:42:00,75.0,-99.9,-100.00,SSW,196,1.0,3.0,-999,0.00,,,0.00,,2013-08-25 07:42:00,
2013-08-25 02:53:00,75.0,-99.9,-100.00,SSW,196,1.0,3.0,-999,0.00,,,0.00,,2013-08-25 07:53:00,
2013-08-25 03:12:00,74.0,-99.9,-100.00,SSW,198,2.0,2.0,-999,0.00,,,0.00,,2013-08-25 08:12:00,
2013-08-25 03:22:00,74.0,-99.9,-100.00,SSW,198,2.0,2.0,-999,0.00,,,0.00,,2013-08-25 08:22:00,
2013-08-25 03:42:00,74.0,-99.9,-100.00,SSW,212,1.0,5.0,-999,0.00,,,0.00,,2013-08-25 08:42:00,
2013-08-25 03:53:00,74.0,-99.9,-100.00,SSW,212,1.0,5.0,-999,0.00,,,0.00,,2013-08-25 08:53:00,
2013-08-25 04:11:00,74.0,-99.9,-100.00,South,186,2.0,5.0,-999,0.00,,,0.00,,2013-08-25 09:11:00,
2013-08-25 04:22:00,74.0,-99.9,-100.00,South,186,2.0,5.0,-999,0.00,,,0.00,,2013-08-25 09:22:00,
2013-08-25 04:44:00,73.0,-99.9,-100.00,South,190,2.0,5.0,-999,0.00,,,0.00,,2013-08-25 09:44:00,
2013-08-25 04:55:00,73.0,-99.9,-100.00,South,190,2.0,5.0,-999,0.00,,,0.00,,2013-08-25 09:55:00,
2013-08-25 05:12:00,73.0,-99.9,-100.00,SSW,193,2.0,4.0,-999,0.00,,,0.00,,2013-08-25 10:12:00,
2013-08-25 05:23:00,73.0,-99.9,-100.00,SSW,193,2.0,4.0,-999,0.00,,,0.00,,2013-08-25 10:23:00,
2013-08-25 05:42:00,73.0,-99.9,-100.00,South,190,2.0,4.0,-999,0.00,,,0.00,,2013-08-25 10:42:00,
2013-08-25 05:53:00,73.0,-99.9,-100.00,South,190,2.0,4.0,-999,0.00,,,0.00,,2013-08-25 10:53:00,
2013-08-25 06:12:00,73.0,-99.9,-100.00,SSW,195,2.0,6.0,-999,0.00,,,0.00,,2013-08-25 11:12:00,
2013-08-25 06:22:00,73.0,-99.9,-100.00,SSW,195,2.0,6.0,-999,0.00,,,0.00,,2013-08-25 11:22:00,
2013-08-25 06:42:00,72.0,-99.9,-100.00,SSW,197,3.0,7.0,-999,0.00,,,0.00,,2013-08-25 11:42:00,
2013-08-25 06:52:00,72.0,-99.9,-100.00,SSW,197,3.0,7.0,-999,0.00,,,0.00,,2013-08-25 11:52:00,
2013-08-25 07:12:00,72.0,-99.9,-100.00,SSW,200,2.0,6.0,-999,0.00,,,0.00,,2013-08-25 12:12:00,
2013-08-25 07:22:00,72.0,-99.9,-100.00,SSW,200,2.0,6.0,-999,0.00,,,0.00,,2013-08-25 12:22:00,
2013-08-25 07:43:00,72.0,-99.9,-100.00,SW,216,4.0,7.0,-999,0.00,,,0.00,,2013-08-25 12:43:00,
2013-08-25 07:52:00,72.0,-99.9,-100.00,SW,216,4.0,7.0,-999,0.00,,,0.00,,2013-08-25 12:52:00,
2013-08-25 08:12:00,72.0,-99.9,-100.00,SW,218,4.0,8.0,-999,0.00,,,0.00,,2013-08-25 13:12:00,
2013-08-25 08:22:00,72.0,-99.9,-100.00,SW,218,4.0,8.0,-999,0.00,,,0.00,,2013-08-25 13:22:00,
2013-08-25 08:42:00,73.0,-99.9,-100.00,SSW,212,3.0,7.0,-999,0.00,,,0.00,,2013-08-25 13:42:00,
2013-08-25 08:52:00,73.0,-99.9,-100.00,SSW,212,3.0,7.0,-999,0.00,,,0.00,,2013-08-25 13:52:00,
2013-08-25 09:11:00,74.0,-99.9,-100.00,SSW,208,4.0,9.0,-999,0.00,,,0.00,,2013-08-25 14:11:00,
2013-08-25 09:28:00,74.0,-99.9,-100.00,SSW,208,4.0,9.0,-999,0.00,,,0.00,,2013-08-25 14:28:00,
2013-08-25 09:42:00,76.0,-99.9,-100.00,SSW,212,5.0,9.0,-999,0.00,,,0.00,,2013-08-25 14:42:00,
2013-08-25 09:52:00,76.0,-99.9,-100.00,SSW,212,5.0,9.0,-999,0.00,,,0.00,,2013-08-25 14:52:00,
2013-08-25 10:11:00,77.0,-99.9,-100.00,SW,219,5.0,8.0,-999,0.00,,,0.00,,2013-08-25 15:11:00,
2013-08-25 10:23:00,77.0,-99.9,-100.00,SW,219,5.0,8.0,-999,0.00,,,0.00,,2013-08-25 15:23:00,
2013-08-25 10:44:00,79.0,-99.9,-100.00,SW,219,7.0,9.0,-999,0.00,,,0.00,,2013-08-25 15:44:00,
2013-08-25 10:55:00,79.0,-99.9,-100.00,SW,219,7.0,9.0,-999,0.00,,,0.00,,2013-08-25 15:55:00,
2013-08-25 11:14:00,79.0,-99.9,-100.00,SW,221,8.0,12.0,-999,0.00,,,0.00,,2013-08-25 16:14:00,
2013-08-25 11:24:00,79.0,-99.9,-100.00,SW,221,8.0,12.0,-999,0.00,,,0.00,,2013-08-25 16:24:00,
2013-08-25 11:44:00,80.0,-99.9,-100.00,SW,223,6.0,9.0,-999,0.00,,,0.00,,2013-08-25 16:44:00,
2013-08-25 11:54:00,80.0,-99.9,-100.00,SW,223,6.0,9.0,-999,0.00,,,0.00,,2013-08-25 16:54:00,
2013-08-25 12:12:00,82.0,-99.9,-100.00,SSW,212,5.0,11.0,-999,0.00,,,0.00,,2013-08-25 17:12:00,
2013-08-25 12:23:00,82.0,-99.9,-100.00,SSW,212,5.0,11.0,-999,0.00,,,0.00,,2013-08-25 17:23:00,
2013-08-25 12:43:00,83.0,-99.9,-100.00,SW,225,6.0,12.0,-999,0.00,,,0.00,,2013-08-25 17:43:00,
2013-08-25 12:53:00,83.0,-99.9,-100.00,SW,225,6.0,12.0,-999,0.00,,,0.00,,2013-08-25 17:53:00,
2013-08-25 13:00:00,86.0,-99.9,-100.00,SSW,210,5.0,10.0,-999,0.00,,,0.00,,2013-08-25 18:00:00,
2013-08-25 13:12:00,85.0,-99.9,-100.00,SW,217,3.0,6.0,-999,0.00,,,0.00,,2013-08-25 18:12:00,
2013-08-25 13:22:00,85.0,-99.9,-100.00,SW,217,3.0,6.0,-999,0.00,,,0.00,,2013-08-25 18:22:00,
2013-08-25 13:43:00,86.0,-99.9,-100.00,SSW,210,5.0,10.0,-999,0.00,,,0.00,,2013-08-25 18:43:00,
2013-08-25 13:52:00,86.0,-99.9,-100.00,SSW,210,5.0,10.0,-999,0.00,,,0.00,,2013-08-25 18:52:00,
2013-08-25 14:42:00,88.0,-99.9,-100.00,South,174,3.0,6.0,-999,0.00,,,0.00,,2013-08-25 19:42:00,
2013-08-25 14:53:00,88.0,-99.9,-100.00,South,174,3.0,6.0,-999,0.00,,,0.00,,2013-08-25 19:53:00,
2013-08-25 15:13:00,88.0,-99.9,-100.00,SSW,205,5.0,16.0,-999,0.00,,,0.00,,2013-08-25 20:13:00,
2013-08-25 15:24:00,88.0,-99.9,-100.00,SSW,205,5.0,16.0,-999,0.00,,,0.00,,2013-08-25 20:24:00,
2013-08-25 15:43:00,91.0,-99.9,-100.00,South,187,3.0,8.0,-999,0.00,,,0.00,,2013-08-25 20:43:00,
2013-08-25 15:53:00,91.0,-99.9,-100.00,South,187,3.0,8.0,-999,0.00,,,0.00,,2013-08-25 20:53:00,
2013-08-25 16:12:00,92.0,-99.9,-100.00,SSE,166,2.0,5.0,-999,0.00,,,0.00,,2013-08-25 21:12:00,
2013-08-25 16:22:00,92.0,-99.9,-100.00,SSE,166,2.0,5.0,-999,0.00,,,0.00,,2013-08-25 21:22:00,
2013-08-25 16:43:00,91.0,-99.9,-100.00,SSE,163,2.0,7.0,-999,0.00,,,0.00,,2013-08-25 21:43:00,
2013-08-25 16:55:00,91.0,-99.9,-100.00,SSE,163,2.0,7.0,-999,0.00,,,0.00,,2013-08-25 21:55:00,
2013-08-25 17:14:00,90.0,-99.9,-100.00,South,189,3.0,7.0,-999,0.00,,,0.00,,2013-08-25 22:14:00,
2013-08-25 17:24:00,90.0,-99.9,-100.00,South,189,3.0,7.0,-999,0.00,,,0.00,,2013-08-25 22:24:00,
2013-08-25 17:43:00,90.0,-99.9,-100.00,South,183,3.0,5.0,-999,0.00,,,0.00,,2013-08-25 22:43:00,
2013-08-25 17:54:00,90.0,-99.9,-100.00,South,183,3.0,5.0,-999,0.00,,,0.00,,2013-08-25 22:54:00,
2013-08-25 18:12:00,89.0,-99.9,-100.00,South,177,3.0,6.0,-999,0.00,,,0.00,,2013-08-25 23:12:00,
2013-08-25 18:23:00,89.0,-99.9,-100.00,South,177,3.0,6.0,-999,0.00,,,0.00,,2013-08-25 23:23:00,
2013-08-25 18:43:00,89.0,-99.9,-100.00,South,178,3.0,6.0,-999,0.00,,,0.00,,2013-08-25 23:43:00,
2013-08-25 18:53:00,89.0,-99.9,-100.00,South,178,3.0,6.0,-999,0.00,,,0.00,,2013-08-25 23:53:00,
2013-08-25 19:11:00,88.0,-99.9,-100.00,South,174,2.0,4.0,-999,0.00,,,0.00,,2013-08-26 00:11:00,
2013-08-25 19:22:00,88.0,-99.9,-100.00,South,174,2.0,4.0,-999,0.00,,,0.00,,2013-08-26 00:22:00,
2013-08-25 19:42:00,86.0,-99.9,-100.00,South,177,2.0,5.0,-999,0.00,,,0.00,,2013-08-26 00:42:00,
2013-08-25 19:52:00,86.0,-99.9,-100.00,South,177,2.0,5.0,-999,0.00,,,0.00,,2013-08-26 00:52:00,
2013-08-25 20:11:00,85.0,-99.9,-100.00,SSE,151,0.0,2.0,-999,0.00,,,0.00,,2013-08-26 01:11:00,
2013-08-25 20:22:00,85.0,-99.9,-100.00,SSE,151,0.0,2.0,-999,0.00,,,0.00,,2013-08-26 01:22:00,
2013-08-25 20:42:00,83.0,-99.9,-100.00,South,183,2.0,4.0,-999,0.00,,,0.00,,2013-08-26 01:42:00,
2013-08-25 20:52:00,83.0,-99.9,-100.00,South,183,2.0,4.0,-999,0.00,,,0.00,,2013-08-26 01:52:00,
2013-08-25 21:11:00,82.0,-99.9,-100.00,SSE,154,1.0,4.0,-999,0.00,,,0.00,,2013-08-26 02:11:00,
2013-08-25 21:22:00,82.0,-99.9,-100.00,SSE,154,1.0,4.0,-999,0.00,,,0.00,,2013-08-26 02:22:00,
2013-08-25 21:42:00,81.0,-99.9,-100.00,South,181,2.0,4.0,-999,0.00,,,0.00,,2013-08-26 02:42:00,
2013-08-25 21:52:00,81.0,-99.9,-100.00,South,181,2.0,4.0,-999,0.00,,,0.00,,2013-08-26 02:52:00,
2013-08-25 22:11:00,80.0,-99.9,-100.00,South,173,2.0,5.0,-999,0.00,,,0.00,,2013-08-26 03:11:00,
2013-08-25 22:22:00,80.0,-99.9,-100.00,South,173,2.0,5.0,-999,0.00,,,0.00,,2013-08-26 03:22:00,
2013-08-25 22:44:00,79.0,-99.9,-100.00,SSW,192,2.0,4.0,-999,0.00,,,0.00,,2013-08-26 03:44:00,
2013-08-25 22:56:00,79.0,-99.9,-100.00,SSW,192,2.0,4.0,-999,0.00,,,0.00,,2013-08-26 03:56:00,
2013-08-25 23:14:00,78.0,-99.9,-100.00,SSE,166,2.0,5.0,-999,0.00,,,0.00,,2013-08-26 04:14:00,
2013-08-25 23:24:00,78.0,-99.9,-100.00,SSE,166,2.0,5.0,-999,0.00,,,0.00,,2013-08-26 04:24:00,
2013-08-25 23:44:00,78.0,-99.9,-100.00,South,177,3.0,4.0,-999,0.00,,,0.00,,2013-08-26 04:44:00,
2013-08-25 23:53:00,78.0,-99.9,-100.00,South,177,3.0,4.0,-999,0.00,,,0.00,,2013-08-26 04:53:00,